Time;durP1;ratioP1;P1;durP2;ratioP2;P2;SDS_P1;SDS_P2;PMS_P1;PMS_P2;Temp;Humidity;BMP_temperature;BMP_pressure;BME280_temperature;BME280_humidity;BME280_pressure;Samples;Min_cycle;Max_cycle;Signal;HPM_P1;HPM_P2
2023/05/16 00:00:18;;;;;;;57.03;32.53;;;14.60;99.90;;;;;;5120310;27;20050;-78
2023/05/16 00:02:44;;;;;;;61.45;32.83;;;14.60;99.90;;;;;;5136187;27;20023;-78
2023/05/16 00:05:13;;;;;;;57.15;32.33;;;14.60;99.90;;;;;;5137355;27;20398;-78
2023/05/16 00:07:42;;;;;;;59.45;32.03;;;14.50;99.90;;;;;;5118856;27;20034;-78
2023/05/16 00:10:08;;;;;;;61.33;33.45;;;14.50;99.90;;;;;;5118794;27;20403;-78
2023/05/16 00:12:36;;;;;;;53.80;31.05;;;14.60;99.90;;;;;;5136539;27;20038;-78
2023/05/16 00:15:07;;;;;;;54.83;32.40;;;14.60;99.90;;;;;;5137336;27;20068;-78
2023/05/16 00:17:34;;;;;;;66.00;33.33;;;14.60;99.90;;;;;;5136782;27;20027;-77
2023/05/16 00:20:09;;;;;;;57.80;32.30;;;14.60;99.90;;;;;;5136851;27;20140;-77
2023/05/16 00:22:36;;;;;;;57.75;31.63;;;14.60;99.90;;;;;;5135866;27;20339;-78
2023/05/16 00:25:02;;;;;;;62.25;31.85;;;14.60;99.90;;;;;;5118209;27;20039;-78
2023/05/16 00:27:28;;;;;;;59.03;31.05;;;14.60;99.90;;;;;;5135793;27;20072;-77
2023/05/16 00:29:54;;;;;;;60.55;31.77;;;14.50;99.90;;;;;;5136150;27;20027;-77
2023/05/16 00:32:20;;;;;;;56.13;31.30;;;14.60;99.90;;;;;;5136073;27;20033;-78
2023/05/16 00:34:46;;;;;;;58.15;32.28;;;14.60;99.90;;;;;;5135887;27;20027;-77
2023/05/16 00:37:13;;;;;;;55.25;30.55;;;14.60;99.90;;;;;;5135845;27;20029;-78
2023/05/16 00:39:39;;;;;;;60.92;31.67;;;14.60;99.90;;;;;;5136345;27;20027;-78
2023/05/16 00:42:05;;;;;;;51.20;30.55;;;14.60;99.90;;;;;;5135249;27;20420;-77
2023/05/16 00:44:31;;;;;;;51.95;31.50;;;14.60;99.90;;;;;;5135752;27;20051;-78
2023/05/16 00:46:59;;;;;;;57.22;30.45;;;14.60;99.90;;;;;;5135422;27;20022;-77
2023/05/16 00:49:25;;;;;;;53.08;30.63;;;14.60;99.90;;;;;;5135806;27;20068;-78
2023/05/16 00:51:52;;;;;;;52.60;31.33;;;14.60;99.90;;;;;;5131558;27;20365;-78
2023/05/16 00:54:21;;;;;;;53.65;29.10;;;14.70;99.90;;;;;;5117594;27;20027;-78
2023/05/16 00:56:47;;;;;;;58.53;30.65;;;14.60;99.90;;;;;;5136276;27;20019;-77
2023/05/16 00:59:14;;;;;;;57.72;29.58;;;14.60;99.90;;;;;;5136465;27;20071;-78
2023/05/16 01:01:40;;;;;;;53.17;30.48;;;14.60;99.90;;;;;;5135977;27;20039;-77
2023/05/16 01:04:06;;;;;;;52.67;29.85;;;14.60;99.90;;;;;;5117683;27;20404;-78
2023/05/16 01:06:33;;;;;;;57.35;30.52;;;14.70;99.90;;;;;;5117598;27;20027;-77
2023/05/16 01:08:59;;;;;;;54.05;30.50;;;14.70;99.90;;;;;;5135919;27;20019;-78
2023/05/16 01:11:43;;;;;;;57.65;30.65;;;14.60;99.90;;;;;;5136006;27;20019;-77
2023/05/16 01:14:31;;;;;;;55.45;30.02;;;14.60;99.90;;;;;;5135608;27;20031;-78
2023/05/16 01:17:34;;;;;;;57.15;29.73;;;14.60;99.90;;;;;;5134888;27;20027;-77
2023/05/16 01:20:07;;;;;;;65.78;32.10;;;14.60;99.90;;;;;;5128427;27;20068;-78
2023/05/16 01:22:47;;;;;;;52.83;31.45;;;14.60;99.90;;;;;;5110745;27;20027;-77
2023/05/16 01:25:42;;;;;;;63.72;32.80;;;14.60;99.90;;;;;;5134881;27;20062;-77
2023/05/16 01:28:09;;;;;;;53.65;31.85;;;14.60;99.90;;;;;;5135551;27;20027;-78
2023/05/16 01:30:38;;;;;;;56.85;31.55;;;14.60;99.90;;;;;;5116393;27;20023;-77
2023/05/16 01:33:04;;;;;;;50.70;30.20;;;14.60;99.90;;;;;;5133335;27;20033;-77
2023/05/16 01:35:30;;;;;;;60.38;29.50;;;14.60;99.90;;;;;;5134796;27;20027;-78
2023/05/16 01:38:20;;;;;;;50.50;29.27;;;14.60;99.90;;;;;;5116275;27;20038;-77
2023/05/16 01:40:56;;;;;;;53.92;28.88;;;14.60;99.90;;;;;;5135141;27;20019;-77
2023/05/16 01:43:44;;;;;;;48.40;26.90;;;14.60;99.90;;;;;;5134465;27;20045;-78
2023/05/16 01:46:13;;;;;;;45.03;26.73;;;14.70;99.90;;;;;;5134635;27;20039;-77
2023/05/16 01:48:52;;;;;;;47.17;28.13;;;14.60;99.90;;;;;;5116282;27;20395;-77
2023/05/16 01:51:21;;;;;;;44.83;27.25;;;14.60;99.90;;;;;;5115616;27;20015;-77
2023/05/16 01:53:49;;;;;;;46.30;26.02;;;14.60;99.90;;;;;;5134554;27;20063;-77
2023/05/16 01:56:16;;;;;;;44.75;26.00;;;14.60;99.90;;;;;;5115807;27;20055;-78
2023/05/16 01:58:43;;;;;;;43.80;26.05;;;14.50;99.90;;;;;;5134284;27;20024;-77
2023/05/16 02:01:08;;;;;;;40.85;25.20;;;14.60;99.90;;;;;;5115568;27;20381;-78
2023/05/16 02:03:34;;;;;;;40.13;24.50;;;14.50;99.90;;;;;;5116114;27;20072;-77
2023/05/16 02:06:00;;;;;;;45.70;25.60;;;14.50;99.90;;;;;;5133761;27;20161;-77
2023/05/16 02:08:27;;;;;;;42.17;25.45;;;14.50;99.90;;;;;;5116269;27;20035;-77
2023/05/16 02:10:53;;;;;;;48.55;25.85;;;14.50;99.90;;;;;;5127137;27;20019;-77
2023/05/16 02:13:19;;;;;;;48.30;25.40;;;14.50;99.90;;;;;;5116051;27;20098;-77
2023/05/16 02:15:45;;;;;;;41.20;24.73;;;14.50;99.90;;;;;;5133988;27;20058;-77
2023/05/16 02:18:11;;;;;;;42.47;24.48;;;14.60;99.90;;;;;;5133459;27;20023;-76
2023/05/16 02:20:38;;;;;;;39.55;23.63;;;14.60;99.90;;;;;;5133736;27;20114;-77
2023/05/16 02:23:04;;;;;;;42.60;25.27;;;14.60;99.90;;;;;;5133835;27;20030;-78
2023/05/16 02:25:30;;;;;;;41.90;22.83;;;14.50;99.90;;;;;;5115067;27;20023;-77
2023/05/16 02:27:56;;;;;;;39.78;23.17;;;14.50;99.90;;;;;;5134380;28;20031;-77
2023/05/16 02:30:21;;;;;;;42.38;23.55;;;14.50;99.90;;;;;;5134301;28;20031;-77
2023/05/16 02:32:47;;;;;;;40.00;22.27;;;14.50;99.90;;;;;;5115534;28;20068;-77
2023/05/16 02:35:13;;;;;;;39.00;23.90;;;14.60;99.90;;;;;;5132739;28;20054;-77
2023/05/16 02:37:40;;;;;;;41.90;24.42;;;14.60;99.90;;;;;;5134101;28;20414;-77
2023/05/16 02:40:06;;;;;;;41.50;23.80;;;14.60;99.90;;;;;;5133690;28;20407;-77
2023/05/16 02:42:33;;;;;;;38.53;23.98;;;14.70;99.90;;;;;;5133709;28;20365;-77
2023/05/16 02:44:58;;;;;;;45.97;23.65;;;14.70;99.90;;;;;;5134440;28;20042;-76
2023/05/16 02:47:24;;;;;;;41.92;24.13;;;14.60;99.90;;;;;;5133681;28;20449;-77
2023/05/16 02:49:53;;;;;;;50.75;24.58;;;14.70;99.90;;;;;;5131246;28;20022;-77
2023/05/16 02:52:19;;;;;;;44.75;24.58;;;14.70;99.90;;;;;;5109897;28;20110;-77
2023/05/16 02:54:45;;;;;;;43.22;25.95;;;14.60;99.90;;;;;;5133805;28;20022;-76
2023/05/16 02:57:11;;;;;;;44.22;24.88;;;14.60;99.90;;;;;;5133442;28;20094;-76
2023/05/16 02:59:37;;;;;;;41.95;25.45;;;14.60;99.90;;;;;;5115471;28;20023;-76
2023/05/16 03:02:03;;;;;;;52.72;27.67;;;14.60;99.90;;;;;;5108557;28;20066;-77
2023/05/16 03:04:29;;;;;;;47.75;28.77;;;14.70;99.90;;;;;;5109588;28;20059;-78
2023/05/16 03:06:55;;;;;;;54.20;28.88;;;14.70;99.90;;;;;;5111487;28;20050;-77
2023/05/16 03:09:21;;;;;;;46.60;26.38;;;14.70;99.90;;;;;;5113393;28;20023;-77
2023/05/16 03:11:47;;;;;;;50.13;27.42;;;14.80;99.90;;;;;;5113079;28;20038;-76
2023/05/16 03:14:13;;;;;;;47.85;27.02;;;14.80;99.90;;;;;;5112892;28;20046;-76
2023/05/16 03:16:40;;;;;;;47.65;26.55;;;14.80;99.90;;;;;;5113435;28;20016;-77
2023/05/16 03:19:06;;;;;;;49.15;26.95;;;14.70;99.90;;;;;;5111959;28;20027;-78
2023/05/16 03:21:32;;;;;;;45.42;24.88;;;14.70;99.90;;;;;;5112381;28;20031;-77
2023/05/16 03:23:57;;;;;;;48.10;26.13;;;14.70;99.90;;;;;;5111751;28;20019;-76
2023/05/16 03:26:26;;;;;;;47.05;26.33;;;14.70;99.90;;;;;;5112759;28;20022;-77
2023/05/16 03:28:52;;;;;;;44.03;25.30;;;14.70;99.90;;;;;;5110918;28;20050;-77
2023/05/16 03:31:18;;;;;;;46.28;26.48;;;14.70;99.90;;;;;;5113619;28;20051;-76
2023/05/16 03:33:44;;;;;;;49.40;26.13;;;14.70;99.90;;;;;;5112662;28;20024;-77
2023/05/16 03:36:10;;;;;;;43.15;24.88;;;14.70;99.90;;;;;;5113331;28;20417;-77
2023/05/16 03:38:36;;;;;;;48.30;25.38;;;14.70;99.90;;;;;;5115080;28;20037;-77
2023/05/16 03:41:02;;;;;;;43.90;26.83;;;14.80;99.90;;;;;;5116912;28;20031;-76
2023/05/16 03:43:28;;;;;;;49.30;25.42;;;14.70;99.90;;;;;;5116799;28;20024;-77
2023/05/16 03:45:54;;;;;;;51.03;24.98;;;14.80;99.90;;;;;;5115951;28;20416;-76
2023/05/16 03:48:20;;;;;;;42.08;25.20;;;14.70;99.90;;;;;;5117084;28;20020;-76
2023/05/16 03:50:46;;;;;;;43.50;24.67;;;14.70;99.90;;;;;;5116758;28;20043;-76
2023/05/16 03:53:12;;;;;;;44.83;26.55;;;14.70;99.90;;;;;;5117177;28;20066;-77
2023/05/16 03:55:38;;;;;;;51.20;25.88;;;14.60;99.90;;;;;;5117018;28;20027;-77
2023/05/16 03:58:04;;;;;;;48.55;26.65;;;14.60;99.90;;;;;;5116482;27;20040;-76
2023/05/16 04:00:30;;;;;;;43.40;26.77;;;14.60;99.90;;;;;;5121480;27;20043;-78
2023/05/16 04:02:56;;;;;;;44.63;27.98;;;14.70;99.90;;;;;;5136728;27;20031;-79
2023/05/16 04:05:21;;;;;;;47.90;26.25;;;14.70;99.90;;;;;;5136860;27;20098;-78
2023/05/16 04:07:47;;;;;;;45.33;24.85;;;14.70;99.90;;;;;;5118174;27;20035;-79
2023/05/16 04:10:14;;;;;;;42.13;24.50;;;14.70;99.90;;;;;;5135537;27;20017;-78
2023/05/16 04:12:40;;;;;;;38.13;22.75;;;14.60;99.90;;;;;;5135220;27;20046;-78
2023/05/16 04:15:06;;;;;;;42.88;24.17;;;14.60;99.90;;;;;;5136538;27;20069;-79
2023/05/16 04:17:33;;;;;;;45.40;23.85;;;14.70;99.90;;;;;;5135901;27;20019;-78
2023/05/16 04:19:59;;;;;;;44.38;24.58;;;14.80;99.90;;;;;;5135063;27;20072;-78
2023/05/16 04:22:26;;;;;;;47.45;24.75;;;14.80;99.90;;;;;;5117549;27;20029;-78
2023/05/16 04:24:52;;;;;;;47.30;25.80;;;14.80;99.90;;;;;;5117641;27;20031;-79
2023/05/16 04:27:17;;;;;;;37.50;24.42;;;14.80;99.90;;;;;;5136769;27;20030;-79
2023/05/16 04:29:43;;;;;;;40.35;24.70;;;14.70;99.90;;;;;;5135658;27;20015;-79
2023/05/16 04:32:09;;;;;;;51.20;26.48;;;14.70;99.90;;;;;;5119589;27;20023;-78
2023/05/16 04:34:36;;;;;;;41.63;25.42;;;14.70;99.90;;;;;;5135765;27;20019;-79
2023/05/16 04:37:07;;;;;;;48.47;24.67;;;14.80;99.90;;;;;;5117574;27;20030;-78
2023/05/16 04:39:35;;;;;;;40.13;23.20;;;14.80;99.90;;;;;;5117155;27;20022;-79
2023/05/16 04:42:01;;;;;;;43.92;23.92;;;14.80;99.90;;;;;;5135886;27;20472;-78
2023/05/16 04:44:27;;;;;;;40.63;23.52;;;14.80;99.90;;;;;;5135845;27;20027;-78
2023/05/16 04:46:53;;;;;;;38.35;22.73;;;14.80;99.90;;;;;;5135095;27;20054;-78
2023/05/16 04:49:19;;;;;;;39.58;23.25;;;14.80;99.90;;;;;;5135559;27;20030;-78
2023/05/16 04:51:47;;;;;;;38.42;22.23;;;14.90;99.90;;;;;;5124436;27;20415;-79
2023/05/16 04:54:13;;;;;;;43.05;22.75;;;14.90;99.90;;;;;;5132229;27;20031;-78
2023/05/16 04:56:38;;;;;;;46.05;23.50;;;14.90;99.90;;;;;;5121925;27;20042;-78
2023/05/16 04:59:04;;;;;;;40.58;21.88;;;15.00;99.90;;;;;;5117087;27;20023;-78
2023/05/16 05:01:30;;;;;;;44.17;23.48;;;15.00;99.90;;;;;;5135473;27;20042;-78
2023/05/16 05:03:56;;;;;;;35.85;22.92;;;15.00;99.90;;;;;;5135717;27;20106;-79
2023/05/16 05:06:22;;;;;;;37.00;21.92;;;15.00;99.90;;;;;;5134835;27;20059;-77
2023/05/16 05:08:48;;;;;;;35.08;21.58;;;15.10;99.90;;;;;;5135890;27;20026;-78
2023/05/16 05:11:14;;;;;;;34.17;20.73;;;15.10;99.90;;;;;;5135057;27;20085;-78
2023/05/16 05:13:40;;;;;;;33.20;21.42;;;15.10;99.90;;;;;;5135088;27;20027;-78
2023/05/16 05:16:05;;;;;;;36.05;21.00;;;15.10;99.90;;;;;;5135006;27;20023;-78
2023/05/16 05:18:31;;;;;;;39.28;21.38;;;15.10;99.90;;;;;;5135558;27;20039;-79
2023/05/16 05:20:57;;;;;;;32.67;21.25;;;15.10;99.90;;;;;;5116552;27;20119;-78
2023/05/16 05:23:23;;;;;;;36.97;22.23;;;15.10;99.90;;;;;;5134801;27;20019;-78
2023/05/16 05:25:49;;;;;;;37.50;20.90;;;15.10;99.90;;;;;;5135169;27;20445;-76
2023/05/16 05:28:15;;;;;;;32.42;20.80;;;15.10;99.90;;;;;;5116554;27;20034;-76
2023/05/16 05:30:41;;;;;;;38.00;21.83;;;15.10;99.90;;;;;;5134838;27;20046;-75
2023/05/16 05:33:07;;;;;;;41.30;21.52;;;15.20;99.90;;;;;;5133987;27;20035;-76
2023/05/16 05:35:33;;;;;;;29.55;20.17;;;15.20;99.90;;;;;;5115777;27;20124;-76
2023/05/16 05:37:58;;;;;;;37.17;20.73;;;15.20;99.90;;;;;;5134933;27;20047;-76
2023/05/16 05:40:25;;;;;;;36.65;20.58;;;15.20;99.90;;;;;;5134743;27;20343;-77
2023/05/16 05:42:50;;;;;;;39.50;22.63;;;15.20;99.90;;;;;;5133157;27;20354;-76
2023/05/16 05:45:16;;;;;;;36.60;22.77;;;15.30;99.90;;;;;;5134281;27;20030;-77
2023/05/16 05:47:43;;;;;;;33.95;20.75;;;15.40;99.90;;;;;;5134485;27;20027;-76
2023/05/16 05:50:10;;;;;;;42.15;21.10;;;15.40;99.90;;;;;;5134691;27;20104;-76
2023/05/16 05:52:37;;;;;;;35.88;21.15;;;15.40;99.90;;;;;;5134170;27;20427;-77
2023/05/16 05:55:03;;;;;;;32.03;19.83;;;15.50;99.90;;;;;;5133482;27;20553;-78
2023/05/16 05:57:29;;;;;;;33.60;19.73;;;15.50;99.90;;;;;;5115527;27;20019;-77
2023/05/16 05:59:54;;;;;;;32.97;19.98;;;15.50;99.90;;;;;;5133928;27;20015;-77
2023/05/16 06:02:20;;;;;;;37.50;19.98;;;15.60;99.90;;;;;;5112092;27;20059;-78
2023/05/16 06:04:46;;;;;;;28.05;17.92;;;15.70;99.90;;;;;;5113752;28;20053;-77
2023/05/16 06:07:14;;;;;;;28.85;19.33;;;15.80;99.90;;;;;;5132188;27;20090;-78
2023/05/16 06:09:39;;;;;;;33.38;19.52;;;15.90;99.90;;;;;;5132071;27;20038;-78
2023/05/16 06:12:06;;;;;;;26.90;18.30;;;16.00;99.90;;;;;;5132745;27;20479;-78
2023/05/16 06:14:31;;;;;;;35.83;19.35;;;16.00;99.90;;;;;;5112087;28;20030;-79
2023/05/16 06:16:57;;;;;;;31.45;17.67;;;16.20;99.90;;;;;;5110801;27;20019;-78
2023/05/16 06:19:23;;;;;;;24.88;16.60;;;16.20;99.90;;;;;;5134028;27;20090;-79
2023/05/16 06:21:49;;;;;;;23.80;16.58;;;16.20;99.90;;;;;;5116086;27;20015;-79
2023/05/16 06:24:15;;;;;;;28.17;15.73;;;16.30;99.90;;;;;;5133870;27;20031;-77
2023/05/16 06:26:40;;;;;;;26.48;15.40;;;16.30;99.90;;;;;;5134759;27;20022;-77
2023/05/16 06:29:06;;;;;;;22.98;13.77;;;16.30;99.90;;;;;;5116307;28;20148;-77
2023/05/16 06:31:32;;;;;;;27.35;14.75;;;16.30;99.90;;;;;;5133719;28;20388;-77
2023/05/16 06:33:58;;;;;;;22.73;14.57;;;16.40;99.90;;;;;;5133989;28;20019;-77
2023/05/16 06:36:24;;;;;;;31.42;15.13;;;16.40;99.90;;;;;;5108687;28;20096;-75
2023/05/16 06:38:49;;;;;;;21.25;12.77;;;16.40;99.90;;;;;;5133802;28;20019;-76
2023/05/16 06:41:15;;;;;;;24.98;12.63;;;16.30;99.90;;;;;;5134010;28;20425;-77
2023/05/16 06:43:41;;;;;;;22.33;13.43;;;16.30;99.90;;;;;;5133636;28;20019;-76
2023/05/16 06:46:07;;;;;;;21.00;13.77;;;16.30;99.90;;;;;;5133971;28;20027;-77
2023/05/16 06:48:32;;;;;;;21.42;13.32;;;16.30;99.90;;;;;;5134142;28;20370;-77
2023/05/16 06:50:58;;;;;;;27.40;13.50;;;16.20;99.90;;;;;;5133774;28;20015;-78
2023/05/16 06:53:25;;;;;;;22.70;13.68;;;16.20;99.90;;;;;;5129377;28;20063;-77
2023/05/16 06:55:51;;;;;;;21.88;13.10;;;16.20;99.90;;;;;;5127881;28;20443;-78
2023/05/16 06:58:16;;;;;;;30.48;13.80;;;16.20;99.90;;;;;;5113608;28;20418;-79
2023/05/16 07:00:43;;;;;;;20.20;13.63;;;16.20;99.90;;;;;;5132802;28;20035;-78
2023/05/16 07:03:08;;;;;;;26.45;14.32;;;16.20;99.90;;;;;;5133893;28;20027;-78
2023/05/16 07:05:34;;;;;;;22.33;14.77;;;16.20;99.90;;;;;;5115190;28;20373;-78
2023/05/16 07:08:00;;;;;;;25.25;15.80;;;16.20;99.90;;;;;;5126524;28;20019;-78
2023/05/16 07:10:26;;;;;;;27.60;17.00;;;16.30;99.90;;;;;;5133183;28;20019;-77
2023/05/16 07:12:52;;;;;;;24.73;15.95;;;16.30;99.90;;;;;;5135963;27;20023;-78
2023/05/16 07:15:17;;;;;;;28.55;16.88;;;16.40;99.90;;;;;;5138003;27;20110;-78
2023/05/16 07:17:43;;;;;;;26.48;16.50;;;16.40;99.90;;;;;;5137206;27;20139;-78
2023/05/16 07:20:12;;;;;;;28.48;17.63;;;16.50;99.90;;;;;;5138011;27;20074;-78
2023/05/16 07:22:38;;;;;;;21.33;15.43;;;16.50;99.90;;;;;;5137967;27;20450;-79
2023/05/16 07:25:05;;;;;;;24.17;14.88;;;16.60;99.90;;;;;;5137859;27;20034;-78
2023/05/16 07:27:31;;;;;;;23.17;14.95;;;16.60;99.90;;;;;;5118779;27;20023;-77
2023/05/16 07:29:57;;;;;;;23.67;13.45;;;16.70;99.90;;;;;;5112614;28;20439;-78
2023/05/16 07:32:23;;;;;;;22.17;13.85;;;;;;;;;;5121388;27;20023;-76
2023/05/16 07:34:49;;;;;;;22.23;12.95;;;17.00;99.90;;;;;;5119259;27;20050;-76
2023/05/16 07:37:15;;;;;;;22.70;12.48;;;16.90;99.90;;;;;;5136928;27;20437;-77
2023/05/16 07:39:41;;;;;;;22.05;13.10;;;;;;;;;;5118799;27;20377;-76
2023/05/16 07:42:08;;;;;;;25.02;14.02;;;17.20;99.90;;;;;;5131878;27;20015;-76
2023/05/16 07:44:34;;;;;;;21.45;12.65;;;17.40;99.90;;;;;;5136824;27;20019;-75
2023/05/16 07:47:01;;;;;;;17.98;11.98;;;17.50;99.90;;;;;;5136602;27;20019;-76
2023/05/16 07:49:26;;;;;;;21.98;12.43;;;17.60;99.90;;;;;;5117924;27;20051;-76
2023/05/16 07:51:52;;;;;;;20.35;10.85;;;17.70;99.90;;;;;;5133950;27;20050;-76
2023/05/16 07:54:18;;;;;;;21.42;11.43;;;17.70;99.90;;;;;;5137056;27;20027;-76
2023/05/16 07:56:44;;;;;;;19.90;10.40;;;17.70;99.90;;;;;;5137623;27;20019;-76
2023/05/16 07:59:10;;;;;;;20.88;11.38;;;17.70;99.90;;;;;;5119139;27;20023;-75
2023/05/16 08:01:36;;;;;;;17.85;10.73;;;17.70;99.90;;;;;;5137053;27;20057;-76
2023/05/16 08:04:02;;;;;;;22.80;11.15;;;17.80;99.90;;;;;;5137555;27;20457;-76
2023/05/16 08:06:28;;;;;;;17.73;10.80;;;17.80;99.90;;;;;;5137543;27;20456;-75
2023/05/16 08:08:55;;;;;;;18.33;9.85;;;17.80;99.90;;;;;;5136449;27;20019;-76
2023/05/16 08:11:21;;;;;;;22.58;9.88;;;17.90;99.90;;;;;;5136785;27;20080;-76
2023/05/16 08:13:48;;;;;;;18.25;10.20;;;17.90;99.90;;;;;;5137221;27;20027;-76
2023/05/16 08:16:13;;;;;;;20.02;10.15;;;17.90;99.90;;;;;;5136791;27;20073;-75
2023/05/16 08:18:39;;;;;;;17.40;10.70;;;17.80;99.90;;;;;;5136860;27;20063;-77
2023/05/16 08:21:05;;;;;;;24.15;11.27;;;17.80;99.90;;;;;;5137082;27;20402;-76
2023/05/16 08:23:31;;;;;;;21.02;10.95;;;17.70;99.90;;;;;;5136023;27;20445;-76
2023/05/16 08:25:57;;;;;;;23.05;10.50;;;17.70;99.90;;;;;;5136941;27;20039;-76
2023/05/16 08:28:23;;;;;;;16.95;9.55;;;17.60;99.90;;;;;;5136973;27;20453;-75
2023/05/16 08:30:49;;;;;;;17.70;9.63;;;17.50;99.90;;;;;;5136566;27;20103;-75
2023/05/16 08:33:15;;;;;;;22.58;11.48;;;17.40;99.90;;;;;;5136904;27;20343;-76
2023/05/16 08:35:45;;;;;;;27.05;11.93;;;17.40;99.90;;;;;;5118297;27;20029;-76
2023/05/16 08:38:10;;;;;;;20.52;10.82;;;17.40;99.90;;;;;;5137100;27;20065;-76
2023/05/16 08:40:36;;;;;;;21.30;12.82;;;17.40;99.90;;;;;;5136296;27;20055;-76
2023/05/16 08:43:03;;;;;;;22.23;11.40;;;17.40;99.90;;;;;;5127300;27;20077;-76
2023/05/16 08:45:30;;;;;;;22.08;12.18;;;17.40;99.90;;;;;;5122010;27;20399;-76
2023/05/16 08:47:56;;;;;;;16.92;11.27;;;17.40;99.90;;;;;;5118330;27;20125;-76
2023/05/16 08:50:23;;;;;;;20.02;11.20;;;17.30;99.90;;;;;;5136019;27;20019;-76
2023/05/16 08:52:51;;;;;;;21.15;12.00;;;17.40;99.90;;;;;;5136259;27;20020;-76
2023/05/16 08:55:19;;;;;;;21.42;11.20;;;17.40;99.90;;;;;;5136426;27;20019;-76
2023/05/16 08:57:48;;;;;;;18.05;11.70;;;17.30;99.90;;;;;;5122314;27;20016;-76
2023/05/16 09:00:14;;;;;;;23.15;11.95;;;17.40;99.90;;;;;;5136271;27;20070;-76
2023/05/16 09:02:43;;;;;;;26.40;12.05;;;17.40;99.90;;;;;;5136206;27;20019;-75
2023/05/16 09:05:11;;;;;;;23.05;11.23;;;17.30;99.90;;;;;;5135916;27;20038;-76
2023/05/16 09:07:37;;;;;;;21.02;12.98;;;17.30;99.90;;;;;;5136154;27;20038;-76
2023/05/16 09:10:05;;;;;;;16.25;11.30;;;17.30;99.90;;;;;;5135919;27;20015;-76
2023/05/16 09:12:34;;;;;;;20.65;12.20;;;17.30;99.90;;;;;;5117411;27;20054;-76
2023/05/16 09:15:05;;;;;;;19.75;11.07;;;17.30;99.90;;;;;;5136007;27;20019;-76
2023/05/16 09:17:42;;;;;;;15.70;11.03;;;17.30;99.90;;;;;;5135635;27;20027;-76
2023/05/16 09:20:13;;;;;;;24.05;11.82;;;17.30;99.90;;;;;;5136024;27;20235;-76
2023/05/16 09:22:40;;;;;;;21.70;11.82;;;17.30;99.90;;;;;;5135819;27;20027;-76
2023/05/16 09:25:06;;;;;;;21.25;10.48;;;17.30;99.90;;;;;;5117066;27;20027;-76
2023/05/16 09:27:32;;;;;;;23.63;11.48;;;17.40;99.90;;;;;;5117258;27;20030;-76
2023/05/16 09:29:59;;;;;;;19.63;11.25;;;17.40;99.90;;;;;;5135803;27;20027;-75
2023/05/16 09:32:25;;;;;;;20.20;10.43;;;17.40;99.90;;;;;;5135046;27;20365;-75
2023/05/16 09:34:52;;;;;;;22.10;11.52;;;17.40;99.90;;;;;;5135705;27;20026;-76
2023/05/16 09:37:19;;;;;;;15.13;10.50;;;17.50;99.90;;;;;;5135585;27;20045;-75
2023/05/16 09:39:53;;;;;;;17.73;10.23;;;17.60;99.90;;;;;;5135503;27;20031;-76
2023/05/16 09:42:21;;;;;;;20.60;11.07;;;17.70;99.90;;;;;;5135196;27;20369;-75
2023/05/16 09:44:49;;;;;;;18.15;10.10;;;17.80;99.90;;;;;;5135361;27;20019;-75
2023/05/16 09:47:16;;;;;;;20.05;11.05;;;;;;;;;;5116616;27;20034;-76
2023/05/16 09:49:43;;;;;;;22.90;10.77;;;18.00;99.90;;;;;;5116856;27;20149;-75
2023/05/16 09:52:09;;;;;;;17.48;9.70;;;18.10;99.90;;;;;;5135572;27;20424;-76
2023/05/16 09:54:35;;;;;;;15.57;9.20;;;18.10;99.90;;;;;;5135030;27;20115;-76
2023/05/16 09:57:01;;;;;;;22.48;10.07;;;18.10;99.90;;;;;;5135532;27;20039;-75
2023/05/16 09:59:37;;;;;;;14.13;8.85;;;;;;;;;;5135275;27;20023;-75
2023/05/16 10:02:07;;;;;;;17.90;9.85;;;18.30;99.90;;;;;;5134250;27;20462;-76
2023/05/16 10:04:37;;;;;;;15.82;8.90;;;;;;;;;;5123713;27;20468;-76
2023/05/16 10:07:05;;;;;;;18.02;9.73;;;18.40;99.90;;;;;;5122924;27;20541;-77
2023/05/16 10:09:35;;;;;;;14.63;9.07;;;18.40;99.90;;;;;;5135335;27;20046;-78
2023/05/16 10:12:07;;;;;;;14.98;9.75;;;18.30;99.90;;;;;;5135098;27;20441;-76
2023/05/16 10:14:36;;;;;;;18.73;9.38;;;18.30;99.90;;;;;;5116228;27;20023;-76
2023/05/16 10:17:14;;;;;;;17.27;10.02;;;18.20;99.90;;;;;;5116680;28;20019;-76
2023/05/16 10:19:41;;;;;;;20.60;9.80;;;18.20;99.90;;;;;;5116923;28;20027;-76
2023/05/16 10:22:09;;;;;;;20.20;10.20;;;18.20;99.90;;;;;;5134834;27;20047;-76
2023/05/16 10:24:41;;;;;;;17.35;9.00;;;18.30;99.90;;;;;;5134793;27;20035;-76
2023/05/16 10:27:07;;;;;;;;;;;18.20;99.90;;;;;;5135363;28;20029;-78
2023/05/16 10:29:33;;;;;;;14.85;9.27;;;18.20;99.90;;;;;;5134242;28;19994;-78
2023/05/16 10:31:59;;;;;;;15.60;8.88;;;18.20;99.90;;;;;;5134497;28;20024;-78
2023/05/16 10:34:25;;;;;;;16.60;8.60;;;18.20;99.90;;;;;;5116348;28;20030;-78
2023/05/16 10:36:52;;;;;;;17.27;9.13;;;18.10;99.90;;;;;;5116049;28;20015;-75
2023/05/16 10:39:18;;;;;;;15.88;8.07;;;18.00;99.90;;;;;;5134845;28;20110;-75
2023/05/16 10:41:45;;;;;;;16.90;8.30;;;18.00;99.90;;;;;;5115960;28;20376;-76
2023/05/16 10:44:17;;;;;;;17.20;9.07;;;17.90;99.90;;;;;;5134337;28;20457;-76
2023/05/16 10:46:43;;;;;;;15.23;9.52;;;17.80;99.90;;;;;;5134426;27;20054;-76
2023/05/16 10:49:25;;;;;;;16.23;8.70;;;17.80;99.90;;;;;;5138931;27;20087;-76
2023/05/16 10:52:06;;;;;;;19.80;8.98;;;17.80;99.90;;;;;;5139028;27;20098;-76
2023/05/16 10:54:40;;;;;;;15.45;8.80;;;17.80;99.90;;;;;;5138862;27;20057;-76
2023/05/16 10:57:21;;;;;;;15.65;8.43;;;17.70;99.90;;;;;;5138150;27;20045;-76
2023/05/16 10:59:49;;;;;;;15.15;8.15;;;17.70;99.90;;;;;;5120114;27;20023;-77
2023/05/16 11:02:33;;;;;;;17.33;8.63;;;17.70;99.90;;;;;;5138696;27;20042;-76
2023/05/16 11:05:01;;;;;;;14.80;9.00;;;17.70;99.90;;;;;;5138168;27;20046;-76
2023/05/16 11:07:38;;;;;;;17.20;8.93;;;17.70;99.90;;;;;;5120115;27;20035;-77
2023/05/16 11:10:05;;;;;;;25.30;8.80;;;17.70;99.90;;;;;;5117704;28;20107;-76
2023/05/16 11:12:50;;;;;;;25.48;9.50;;;17.70;99.90;;;;;;5135466;27;20407;-76
2023/05/16 11:15:25;;;;;;;18.45;9.18;;;17.70;99.90;;;;;;5120102;27;20110;-76
2023/05/16 11:18:03;;;;;;;15.10;8.70;;;17.70;99.90;;;;;;5138081;27;20030;-76
2023/05/16 11:20:31;;;;;;;19.13;8.90;;;17.70;99.90;;;;;;5137980;27;20094;-76
2023/05/16 11:23:18;;;;;;;19.40;9.30;;;17.70;99.90;;;;;;5138178;27;20450;-76
2023/05/16 11:25:57;;;;;;;21.70;9.98;;;17.70;99.90;;;;;;5137881;27;20101;-76
2023/05/16 11:28:26;;;;;;;18.13;9.32;;;17.70;99.90;;;;;;5137907;27;20101;-76
2023/05/16 11:30:56;;;;;;;18.88;9.02;;;17.70;99.90;;;;;;5138065;27;20349;-76
2023/05/16 11:33:23;;;;;;;21.30;8.73;;;17.70;99.90;;;;;;5138067;27;20472;-76
2023/05/16 11:36:06;;;;;;;18.08;9.07;;;17.70;99.90;;;;;;5137736;27;20026;-76
2023/05/16 11:38:33;;;;;;;25.98;9.38;;;17.70;99.90;;;;;;5119525;27;20069;-76
2023/05/16 11:41:07;;;;;;;18.00;8.23;;;17.70;99.90;;;;;;5137163;27;20019;-76
2023/05/16 11:43:40;;;;;;;18.60;8.18;;;17.80;99.90;;;;;;5137313;27;20023;-76
2023/05/16 11:46:09;;;;;;;19.98;8.90;;;17.70;99.90;;;;;;5118240;27;20421;-76
2023/05/16 11:48:35;;;;;;;19.80;9.43;;;17.80;99.90;;;;;;5137205;27;20047;-78
2023/05/16 11:51:02;;;;;;;20.67;10.07;;;17.80;99.90;;;;;;5136797;27;20019;-78
2023/05/16 11:53:28;;;;;;;16.55;8.80;;;17.80;99.90;;;;;;5136690;27;20019;-78
2023/05/16 11:55:54;;;;;;;15.20;8.40;;;17.80;99.90;;;;;;5134871;27;20061;-79
2023/05/16 11:58:21;;;;;;;15.65;8.93;;;17.90;99.90;;;;;;5117566;28;20084;-78
2023/05/16 12:00:50;;;;;;;21.73;8.98;;;18.00;99.90;;;;;;5136013;27;20042;-78
2023/05/16 12:03:18;;;;;;;18.77;8.30;;;18.10;99.90;;;;;;5136977;27;20035;-78
2023/05/16 12:05:52;;;;;;;22.17;9.05;;;18.20;99.90;;;;;;5118047;27;20034;-78
2023/05/16 12:08:20;;;;;;;21.73;9.57;;;18.20;99.90;;;;;;5101503;27;20492;-78
2023/05/16 12:10:48;;;;;;;14.95;8.55;;;18.20;99.90;;;;;;5136752;27;20403;-78
2023/05/16 12:13:14;;;;;;;24.42;9.68;;;18.20;99.90;;;;;;5117614;27;20023;-78
2023/05/16 12:15:41;;;;;;;18.90;9.00;;;18.20;99.90;;;;;;5136595;27;20055;-75
2023/05/16 12:18:07;;;;;;;16.95;9.18;;;18.20;99.90;;;;;;5136413;27;20042;-76
2023/05/16 12:20:33;;;;;;;28.63;10.02;;;18.30;99.90;;;;;;5136140;27;20078;-76
2023/05/16 12:22:59;;;;;;;23.65;9.60;;;18.40;99.90;;;;;;5136279;27;20023;-76
2023/05/16 12:25:26;;;;;;;19.05;9.30;;;;;;;;;;5136370;27;20027;-76
2023/05/16 12:27:54;;;;;;;15.73;8.95;;;18.80;99.90;;;;;;5135902;27;20047;-76
2023/05/16 12:30:25;;;;;;;19.25;8.75;;;19.00;99.90;;;;;;5136265;27;20019;-76
2023/05/16 12:33:23;;;;;;;18.17;9.10;;;19.00;99.90;;;;;;5117639;27;20110;-76